Time;durP1;ratioP1;P1;durP2;ratioP2;P2;SDS_P1;SDS_P2;PMS_P1;PMS_P2;Temp;Humidity;BMP_temperature;BMP_pressure;BME280_temperature;BME280_humidity;BME280_pressure;Samples;Min_cycle;Max_cycle;Signal;HPM_P1;HPM_P2
2022/07/28 00:01:47;;;;;;;4.60;2.20;;;17.70;96.80;;;;;;5031764;28;20176;-52
2022/07/28 00:04:13;;;;;;;7.22;2.33;;;17.70;96.90;;;;;;5028568;28;20263;-52
2022/07/28 00:06:38;;;;;;;9.32;2.40;;;17.70;97.10;;;;;;5021314;28;20243;-52
2022/07/28 00:09:04;;;;;;;9.93;2.13;;;17.70;97.20;;;;;;5028442;28;20245;-52
2022/07/28 00:11:31;;;;;;;7.13;2.08;;;17.70;97.30;;;;;;5012519;28;20243;-51
2022/07/28 00:13:56;;;;;;;4.70;1.90;;;17.60;97.40;;;;;;5012057;28;20231;-51
2022/07/28 00:16:23;;;;;;;4.25;2.08;;;17.60;97.50;;;;;;5026768;28;20620;-52
2022/07/28 00:18:48;;;;;;;7.53;2.38;;;17.60;97.70;;;;;;5012240;28;20541;-50
2022/07/28 00:21:14;;;;;;;6.75;2.00;;;17.60;97.80;;;;;;5019895;28;20194;-48
2022/07/28 00:23:40;;;;;;;4.30;1.73;;;17.50;97.90;;;;;;5031040;28;20266;-54
2022/07/28 00:26:11;;;;;;;10.07;2.20;;;17.50;98.10;;;;;;5030823;28;20228;-50
2022/07/28 00:28:37;;;;;;;7.03;2.00;;;17.50;98.20;;;;;;5029134;28;20568;-49
2022/07/28 00:31:04;;;;;;;5.43;2.00;;;17.50;98.30;;;;;;5024773;28;20234;-50
2022/07/28 00:33:31;;;;;;;5.63;2.30;;;17.50;98.40;;;;;;5032890;28;20180;-47
2022/07/28 00:35:57;;;;;;;6.47;2.10;;;17.40;98.50;;;;;;5013181;28;20219;-47
2022/07/28 00:38:22;;;;;;;5.90;2.17;;;17.40;98.70;;;;;;5013089;28;20188;-48
2022/07/28 00:43:32;;;;;;;5.72;1.90;;;17.30;98.90;;;;;;5032404;28;20180;-45
2022/07/28 00:45:58;;;;;;;4.65;1.77;;;17.30;99.00;;;;;;5010724;28;20694;-50
2022/07/28 00:48:24;;;;;;;9.13;1.85;;;17.30;99.00;;;;;;5025271;28;20183;-47
2022/07/28 00:50:51;;;;;;;9.98;1.80;;;17.20;99.10;;;;;;5015932;28;20188;-53
2022/07/28 00:53:17;;;;;;;7.43;1.85;;;17.20;99.10;;;;;;5013257;28;20184;-48
2022/07/28 00:55:42;;;;;;;5.35;1.33;;;17.20;99.00;;;;;;5012982;28;20208;-52
2022/07/28 00:58:08;;;;;;;2.38;1.30;;;17.10;98.90;;;;;;5013053;28;20189;-51
2022/07/28 01:00:34;;;;;;;5.57;1.45;;;17.10;98.90;;;;;;5011816;28;20197;-51
2022/07/28 01:03:01;;;;;;;3.63;1.48;;;17.00;98.80;;;;;;5024639;28;20243;-52
2022/07/28 01:05:48;;;;;;;3.35;1.30;;;16.90;98.80;;;;;;5029046;28;20231;-55
2022/07/28 01:08:28;;;;;;;6.07;1.70;;;16.90;98.90;;;;;;5031372;28;20549;-49
2022/07/28 01:10:54;;;;;;;5.85;1.52;;;16.90;98.90;;;;;;5014532;28;20184;-47
2022/07/28 01:13:35;;;;;;;3.05;1.45;;;16.90;98.90;;;;;;5022023;28;20183;-49
2022/07/28 01:16:03;;;;;;;6.47;1.67;;;16.80;98.80;;;;;;5029892;28;20207;-46
2022/07/28 01:18:45;;;;;;;7.85;1.45;;;16.80;98.80;;;;;;5013830;28;20538;-47
2022/07/28 01:21:14;;;;;;;6.78;1.63;;;16.80;98.90;;;;;;5025271;28;20194;-51
2022/07/28 01:24:26;;;;;;;3.05;1.40;;;16.80;98.90;;;;;;5012396;28;20181;-51
2022/07/28 01:27:03;;;;;;;5.85;1.70;;;16.80;98.90;;;;;;5013891;28;20665;-50
2022/07/28 01:29:47;;;;;;;4.97;1.52;;;16.70;99.00;;;;;;5021277;28;20180;-50
2022/07/28 01:32:29;;;;;;;3.30;1.45;;;16.70;99.00;;;;;;5015596;28;20267;-55
2022/07/28 01:35:18;;;;;;;4.13;1.40;;;16.70;99.00;;;;;;5022602;28;20566;-52
2022/07/28 01:37:48;;;;;;;10.05;1.38;;;16.70;99.00;;;;;;5033033;28;20212;-48
2022/07/28 01:40:18;;;;;;;8.70;1.42;;;16.60;99.00;;;;;;5023223;28;20216;-52
2022/07/28 01:42:48;;;;;;;5.00;1.33;;;16.70;99.00;;;;;;5015054;28;20260;-48
2022/07/28 01:45:15;;;;;;;2.13;1.23;;;16.70;99.00;;;;;;5016808;28;20597;-47
2022/07/28 01:47:44;;;;;;;2.78;1.20;;;16.60;99.00;;;;;;5016715;28;20215;-49
2022/07/28 01:50:12;;;;;;;3.20;1.40;;;16.60;99.00;;;;;;5016358;28;20280;-47
2022/07/28 01:52:41;;;;;;;4.22;1.48;;;16.60;99.00;;;;;;5016332;28;20181;-45
2022/07/28 01:55:09;;;;;;;3.13;1.10;;;16.60;99.00;;;;;;5015559;28;20291;-49
2022/07/28 01:57:36;;;;;;;6.35;1.50;;;16.60;99.00;;;;;;5016326;28;20208;-52
2022/07/28 02:00:04;;;;;;;3.53;1.20;;;16.60;98.90;;;;;;5015533;28;20255;-48
2022/07/28 02:02:39;;;;;;;6.57;1.20;;;16.60;99.00;;;;;;5015571;28;20187;-50
2022/07/28 02:05:07;;;;;;;4.47;1.10;;;16.60;99.00;;;;;;5023164;28;20259;-50
2022/07/28 02:07:36;;;;;;;5.22;1.65;;;16.60;99.00;;;;;;5019445;28;20195;-52
2022/07/28 02:10:05;;;;;;;2.90;1.17;;;16.60;99.00;;;;;;5015314;28;20185;-48
2022/07/28 02:12:32;;;;;;;7.20;1.40;;;16.60;99.00;;;;;;5029068;28;20191;-47
2022/07/28 02:14:59;;;;;;;6.68;1.08;;;16.60;99.00;;;;;;5015256;28;20220;-48
2022/07/28 02:17:29;;;;;;;6.63;1.30;;;16.60;99.00;;;;;;5015739;28;20191;-52
2022/07/28 02:19:56;;;;;;;5.88;1.35;;;16.60;99.10;;;;;;5020205;28;20180;-52
2022/07/28 02:22:23;;;;;;;4.07;1.33;;;16.60;99.10;;;;;;5028413;28;20184;-51
2022/07/28 02:24:52;;;;;;;5.07;1.58;;;16.60;99.10;;;;;;5034125;28;20195;-50
2022/07/28 02:27:43;;;;;;;4.60;1.40;;;16.50;99.20;;;;;;5019366;28;20184;-53
2022/07/28 02:30:13;;;;;;;5.07;1.15;;;16.50;99.20;;;;;;5014402;28;20168;-50
2022/07/28 02:32:52;;;;;;;4.50;1.55;;;16.50;99.30;;;;;;5014621;28;20504;-51
2022/07/28 02:35:29;;;;;;;6.57;1.45;;;16.50;99.40;;;;;;5030565;28;20207;-51
2022/07/28 02:38:05;;;;;;;3.92;1.30;;;16.40;99.50;;;;;;5013703;28;20184;-51
2022/07/28 02:40:37;;;;;;;4.72;1.48;;;16.40;99.60;;;;;;5015265;28;20538;-50
2022/07/28 02:43:08;;;;;;;4.95;1.48;;;16.40;99.70;;;;;;5015294;28;20180;-50
2022/07/28 02:45:38;;;;;;;4.72;1.45;;;16.40;99.80;;;;;;5014096;28;20200;-50
2022/07/28 02:48:09;;;;;;;8.43;1.58;;;16.40;99.90;;;;;;5027133;28;20167;-49
2022/07/28 02:50:35;;;;;;;9.32;1.50;;;16.40;99.90;;;;;;5050401;28;20706;-52
2022/07/28 02:53:03;;;;;;;5.72;1.40;;;16.40;99.90;;;;;;5033426;28;20234;-51
2022/07/28 02:55:29;;;;;;;4.72;1.60;;;16.40;99.90;;;;;;5032732;28;20191;-55
2022/07/28 02:57:57;;;;;;;3.63;1.40;;;16.40;99.90;;;;;;5025059;28;20196;-48
2022/07/28 03:00:24;;;;;;;6.18;1.75;;;16.40;99.90;;;;;;5033646;28;20180;-53
2022/07/28 03:02:51;;;;;;;5.43;1.50;;;16.40;99.90;;;;;;5031573;28;20359;-49
2022/07/28 03:05:18;;;;;;;4.57;1.40;;;16.40;99.90;;;;;;5034474;28;20299;-48
2022/07/28 03:07:44;;;;;;;4.63;1.45;;;16.40;99.90;;;;;;5032400;28;20187;-48
2022/07/28 03:10:18;;;;;;;2.97;1.40;;;16.40;99.90;;;;;;5020221;28;20189;-48
2022/07/28 03:12:45;;;;;;;3.42;1.48;;;16.40;99.90;;;;;;5019426;28;20639;-50
2022/07/28 03:15:12;;;;;;;5.18;1.42;;;16.40;99.90;;;;;;5015022;28;20553;-50
2022/07/28 03:17:38;;;;;;;5.15;1.60;;;16.40;99.90;;;;;;5013374;28;20238;-48
2022/07/28 03:20:05;;;;;;;6.68;1.83;;;16.40;99.90;;;;;;5014586;28;20188;-51
2022/07/28 03:22:31;;;;;;;5.90;1.77;;;16.40;99.90;;;;;;5027581;28;20191;-48
2022/07/28 03:24:58;;;;;;;4.25;1.63;;;16.40;99.90;;;;;;5030462;28;20243;-48
2022/07/28 03:27:30;;;;;;;3.00;1.50;;;16.40;99.90;;;;;;5013279;28;20194;-51
2022/07/28 03:30:36;;;;;;;5.38;1.67;;;16.40;99.90;;;;;;5014384;28;20173;-49
2022/07/28 03:33:02;;;;;;;5.53;1.77;;;16.30;99.90;;;;;;5026873;28;20198;-48
2022/07/28 03:35:32;;;;;;;6.18;1.88;;;16.30;99.90;;;;;;5030131;28;20217;-45
2022/07/28 03:38:32;;;;;;;4.40;1.77;;;16.30;99.90;;;;;;5014376;28;20185;-48
2022/07/28 03:41:02;;;;;;;6.43;1.90;;;16.20;99.90;;;;;;5010357;28;20223;-46
2022/07/28 03:43:29;;;;;;;7.45;1.88;;;16.20;99.90;;;;;;5028874;28;20185;-45
2022/07/28 03:45:55;;;;;;;6.20;1.98;;;16.20;99.90;;;;;;5015484;28;20192;-49
2022/07/28 03:48:27;;;;;;;5.15;1.83;;;16.20;99.90;;;;;;5038747;28;20182;-49
2022/07/28 03:50:53;;;;;;;4.38;1.83;;;16.10;99.90;;;;;;5046729;28;20193;-46
2022/07/28 03:53:22;;;;;;;3.90;1.80;;;16.10;99.90;;;;;;5020448;28;20188;-55
2022/07/28 03:55:49;;;;;;;4.60;1.50;;;16.10;99.90;;;;;;5018688;28;20208;-51
2022/07/28 03:58:25;;;;;;;6.72;1.50;;;16.10;99.90;;;;;;4996592;28;20208;-52
2022/07/28 04:00:52;;;;;;;5.70;1.65;;;16.00;99.90;;;;;;5012867;28;20195;-47
2022/07/28 04:03:19;;;;;;;6.25;1.73;;;16.00;99.90;;;;;;5023585;28;20176;-49
2022/07/28 04:05:46;;;;;;;7.55;1.65;;;16.00;99.90;;;;;;5027536;28;20232;-49
2022/07/28 04:08:12;;;;;;;3.50;1.70;;;16.00;99.90;;;;;;5013493;28;20189;-47
2022/07/28 04:10:38;;;;;;;3.45;1.40;;;16.00;99.90;;;;;;5012081;28;20286;-46
2022/07/28 04:13:04;;;;;;;9.30;1.55;;;16.00;99.90;;;;;;5023483;28;20199;-50
2022/07/28 04:15:31;;;;;;;4.22;1.45;;;16.00;99.90;;;;;;5011936;28;20205;-49
2022/07/28 04:17:58;;;;;;;3.33;1.50;;;16.00;99.90;;;;;;5013485;28;20188;-47
2022/07/28 04:20:26;;;;;;;8.10;1.60;;;16.00;99.90;;;;;;5012558;28;20632;-51
2022/07/28 04:22:54;;;;;;;8.13;2.03;;;16.00;99.90;;;;;;5012653;28;20663;-48
2022/07/28 04:25:23;;;;;;;3.33;1.63;;;16.00;99.90;;;;;;5012324;28;20239;-51
2022/07/28 04:27:50;;;;;;;5.88;1.73;;;15.90;99.90;;;;;;5019999;28;20671;-48
2022/07/28 04:30:18;;;;;;;5.57;1.90;;;16.00;99.90;;;;;;5014064;28;20193;-49
2022/07/28 04:32:45;;;;;;;7.38;2.08;;;16.00;99.90;;;;;;5027277;28;20246;-48
2022/07/28 04:35:11;;;;;;;3.58;1.50;;;16.00;99.90;;;;;;5012241;28;20203;-49
2022/07/28 04:37:38;;;;;;;6.00;1.67;;;16.00;99.90;;;;;;5019233;28;20644;-46
2022/07/28 04:40:06;;;;;;;5.15;1.80;;;16.00;99.90;;;;;;5027452;28;20263;-51
2022/07/28 04:42:32;;;;;;;5.20;1.40;;;16.00;99.90;;;;;;5013224;28;20199;-50
2022/07/28 04:44:58;;;;;;;8.77;1.90;;;15.90;99.90;;;;;;5012413;28;20527;-47
2022/07/28 04:47:24;;;;;;;7.60;1.90;;;16.00;99.90;;;;;;5012865;28;20197;-50
2022/07/28 04:49:51;;;;;;;14.07;1.55;;;16.00;99.90;;;;;;5033412;28;20190;-48
2022/07/28 04:52:17;;;;;;;8.75;1.90;;;16.00;99.90;;;;;;5027748;28;20286;-49
2022/07/28 04:54:44;;;;;;;7.07;6.35;;;16.00;99.90;;;;;;5031448;28;20259;-51
2022/07/28 04:57:10;;;;;;;9.10;7.50;;;16.00;99.90;;;;;;5029405;28;20271;-51
2022/07/28 04:59:37;;;;;;;10.73;2.05;;;16.00;99.90;;;;;;5030262;28;20272;-51
2022/07/28 05:02:03;;;;;;;9.98;1.70;;;16.00;99.90;;;;;;5025972;28;20180;-46
2022/07/28 05:04:29;;;;;;;6.47;1.88;;;16.00;99.90;;;;;;5031113;28;20187;-51
2022/07/28 05:06:55;;;;;;;8.73;2.00;;;16.00;99.90;;;;;;5027655;28;20220;-51
2022/07/28 05:09:21;;;;;;;6.13;2.13;;;16.10;99.90;;;;;;5016979;28;20180;-51
2022/07/28 05:11:47;;;;;;;8.85;1.83;;;16.10;99.90;;;;;;5012680;28;20526;-47
2022/07/28 05:14:13;;;;;;;6.95;1.65;;;16.10;99.90;;;;;;5032031;28;20538;-50
2022/07/28 05:16:38;;;;;;;9.10;2.08;;;16.20;99.90;;;;;;5024682;28;20227;-45
2022/07/28 05:19:04;;;;;;;8.40;2.60;;;16.20;99.90;;;;;;5012469;28;20243;-45
2022/07/28 05:21:30;;;;;;;14.23;2.60;;;16.20;99.90;;;;;;5019850;28;20188;-50
2022/07/28 05:23:56;;;;;;;6.03;2.30;;;16.20;99.90;;;;;;5023444;28;20234;-50
2022/07/28 05:26:22;;;;;;;7.85;2.10;;;16.30;99.90;;;;;;5018598;28;20192;-48
2022/07/28 05:28:48;;;;;;;11.45;2.00;;;16.30;99.90;;;;;;5017617;28;20228;-47
2022/07/28 05:31:14;;;;;;;11.55;1.70;;;16.40;99.90;;;;;;5020589;28;20201;-48
2022/07/28 05:33:40;;;;;;;7.80;1.88;;;16.40;99.90;;;;;;5022398;28;20183;-46
2022/07/28 05:36:08;;;;;;;7.03;1.67;;;16.40;99.90;;;;;;5022491;28;20683;-47
2022/07/28 05:38:34;;;;;;;6.18;1.80;;;16.50;99.90;;;;;;5015638;28;20199;-48
2022/07/28 05:41:00;;;;;;;6.60;1.80;;;16.50;99.90;;;;;;5009750;28;20617;-45
2022/07/28 05:43:26;;;;;;;4.88;1.42;;;16.50;99.90;;;;;;5011021;28;20181;-48
2022/07/28 05:45:52;;;;;;;7.03;1.50;;;16.50;99.90;;;;;;5011471;28;20192;-56
2022/07/28 05:48:19;;;;;;;5.70;1.40;;;16.50;99.90;;;;;;5021183;28;20190;-54
2022/07/28 05:50:46;;;;;;;6.80;1.58;;;16.60;99.90;;;;;;5024046;28;20193;-46
2022/07/28 05:53:11;;;;;;;4.80;1.70;;;16.60;99.90;;;;;;5024412;28;20218;-49
2022/07/28 05:55:37;;;;;;;5.47;1.30;;;16.60;99.90;;;;;;5027998;28;20215;-48
2022/07/28 05:58:03;;;;;;;4.43;1.30;;;16.70;99.90;;;;;;5030588;28;20274;-45
2022/07/28 06:00:32;;;;;;;6.60;1.60;;;16.70;99.90;;;;;;5030209;28;20175;-52
2022/07/28 06:03:01;;;;;;;7.38;1.52;;;16.70;99.90;;;;;;5010223;28;20242;-47
2022/07/28 06:05:29;;;;;;;10.60;1.40;;;16.80;99.90;;;;;;5011276;28;20227;-52
2022/07/28 06:07:56;;;;;;;5.68;1.27;;;16.80;99.90;;;;;;5012819;28;20275;-50
2022/07/28 06:10:24;;;;;;;4.93;1.40;;;16.80;99.90;;;;;;5011566;28;20262;-53
2022/07/28 06:12:53;;;;;;;4.50;1.70;;;16.80;99.90;;;;;;5029663;28;20188;-50
2022/07/28 06:15:28;;;;;;;5.22;1.30;;;16.80;99.90;;;;;;5015729;28;20212;-46
2022/07/28 06:17:54;;;;;;;5.93;1.20;;;16.80;99.90;;;;;;5028329;28;20201;-51
2022/07/28 06:20:22;;;;;;;6.80;1.30;;;16.80;99.60;;;;;;5024943;28;20624;-55
2022/07/28 06:22:50;;;;;;;5.78;1.20;;;16.80;99.50;;;;;;5018961;28;20192;-51
2022/07/28 06:25:22;;;;;;;5.40;1.30;;;16.90;99.30;;;;;;5020305;28;20659;-49
2022/07/28 06:27:50;;;;;;;5.90;1.52;;;16.80;99.20;;;;;;5034408;28;20187;-49
2022/07/28 06:30:17;;;;;;;3.17;1.33;;;16.90;99.10;;;;;;5031684;28;20199;-50
2022/07/28 06:32:43;;;;;;;6.22;1.60;;;16.80;98.90;;;;;;5025448;28;20283;-48
2022/07/28 06:35:13;;;;;;;4.43;1.42;;;16.90;98.80;;;;;;5035105;28;20294;-48
2022/07/28 06:37:39;;;;;;;5.63;1.30;;;16.90;98.70;;;;;;5030487;28;20192;-49
2022/07/28 06:40:07;;;;;;;3.22;1.45;;;16.90;98.60;;;;;;5034679;28;20180;-52
2022/07/28 06:42:33;;;;;;;4.22;1.65;;;16.90;98.50;;;;;;5015561;28;20180;-48
2022/07/28 06:44:58;;;;;;;5.50;1.70;;;17.00;98.40;;;;;;5015434;28;20187;-48
2022/07/28 06:47:24;;;;;;;5.32;1.42;;;17.00;98.30;;;;;;5021149;28;20184;-48
2022/07/28 06:49:50;;;;;;;6.10;1.10;;;17.10;98.20;;;;;;5028212;28;20184;-50
2022/07/28 06:52:19;;;;;;;5.20;1.20;;;17.20;98.00;;;;;;5013855;28;20570;-49
2022/07/28 06:54:46;;;;;;;4.15;1.30;;;17.20;97.80;;;;;;5030481;28;20181;-50
2022/07/28 06:57:12;;;;;;;6.82;1.50;;;17.20;97.60;;;;;;5014624;28;20189;-50
2022/07/28 06:59:38;;;;;;;3.00;1.00;;;17.30;97.30;;;;;;5014121;28;20191;-50
2022/07/28 07:02:05;;;;;;;6.93;1.58;;;17.30;96.90;;;;;;5029736;28;20188;-54
2022/07/28 07:04:30;;;;;;;4.72;1.48;;;17.30;96.70;;;;;;5013675;28;20199;-50
2022/07/28 07:06:56;;;;;;;7.65;1.45;;;17.40;96.60;;;;;;4998268;28;20756;-51
2022/07/28 07:09:23;;;;;;;9.90;5.38;;;17.40;96.40;;;;;;5022731;28;20513;-54
2022/07/28 07:11:48;;;;;;;5.85;1.30;;;17.40;96.20;;;;;;5018845;28;20257;-50
2022/07/28 07:14:14;;;;;;;4.78;1.92;;;17.50;96.10;;;;;;5014020;28;20185;-46
2022/07/28 07:16:40;;;;;;;5.07;1.30;;;17.50;96.00;;;;;;5012899;28;20209;-51
2022/07/28 07:19:07;;;;;;;3.30;1.20;;;17.60;95.90;;;;;;5013700;28;20196;-52
2022/07/28 07:21:32;;;;;;;5.07;1.63;;;17.60;95.60;;;;;;5029528;28;20189;-49
2022/07/28 07:23:58;;;;;;;4.82;1.10;;;17.60;95.30;;;;;;5014518;28;20173;-50
2022/07/28 07:26:24;;;;;;;6.93;1.40;;;17.60;95.30;;;;;;5024379;28;20275;-51
2022/07/28 07:28:50;;;;;;;6.03;1.50;;;17.70;95.20;;;;;;5025848;28;20617;-50
2022/07/28 07:31:16;;;;;;;7.60;1.10;;;17.70;95.00;;;;;;5013451;28;20216;-49
2022/07/28 07:33:42;;;;;;;4.90;1.45;;;17.80;94.90;;;;;;5013490;28;20177;-51
2022/07/28 07:36:08;;;;;;;8.88;1.40;;;17.80;94.80;;;;;;5018683;28;20290;-50
2022/07/28 07:38:34;;;;;;;4.25;1.20;;;17.80;94.60;;;;;;5034043;28;20636;-53
2022/07/28 07:41:00;;;;;;;6.50;1.38;;;17.80;94.50;;;;;;5027697;28;20275;-52
2022/07/28 07:43:26;;;;;;;3.75;1.20;;;17.80;94.20;;;;;;5026653;28;20513;-50
2022/07/28 07:45:52;;;;;;;5.88;1.30;;;17.90;94.10;;;;;;5031581;28;20195;-50
2022/07/28 07:48:18;;;;;;;5.25;1.30;;;17.90;94.00;;;;;;5037164;28;20247;-49
2022/07/28 07:50:44;;;;;;;3.47;1.00;;;18.10;93.90;;;;;;5046484;28;20233;-51
2022/07/28 07:53:10;;;;;;;3.90;1.20;;;18.10;93.50;;;;;;5014122;28;20200;-48
2022/07/28 07:55:36;;;;;;;3.72;1.00;;;18.10;93.10;;;;;;5012729;28;20219;-49
2022/07/28 07:58:02;;;;;;;3.63;1.50;;;18.20;92.80;;;;;;5013122;28;20713;-48
2022/07/28 08:00:28;;;;;;;4.57;1.13;;;18.30;92.30;;;;;;5013232;28;20181;-48
2022/07/28 08:02:55;;;;;;;4.13;1.15;;;18.30;92.00;;;;;;5015700;28;20680;-48
2022/07/28 08:05:21;;;;;;;4.03;1.42;;;18.40;91.70;;;;;;5017852;28;20606;-56
2022/07/28 08:07:47;;;;;;;3.95;1.40;;;18.40;91.40;;;;;;5014058;28;20192;-47
2022/07/28 08:10:12;;;;;;;5.40;0.93;;;18.40;90.90;;;;;;5013899;28;20275;-48
2022/07/28 08:12:39;;;;;;;1.95;1.00;;;18.50;90.70;;;;;;5012808;28;20184;-53
2022/07/28 08:15:05;;;;;;;5.45;1.13;;;18.50;90.30;;;;;;5012535;28;20220;-54
2022/07/28 08:17:32;;;;;;;4.80;0.95;;;18.60;90.00;;;;;;5027505;28;20196;-52
2022/07/28 08:19:57;;;;;;;3.47;1.20;;;18.60;89.60;;;;;;5033403;28;20183;-51
2022/07/28 08:22:23;;;;;;;3.28;1.10;;;18.70;88.70;;;;;;5023272;28;20180;-49
2022/07/28 08:24:49;;;;;;;7.57;1.08;;;18.70;88.30;;;;;;5013511;28;20271;-54
2022/07/28 08:27:16;;;;;;;4.88;0.90;;;18.70;88.20;;;;;;5013266;28;20189;-49
2022/07/28 08:29:41;;;;;;;8.00;1.20;;;18.80;88.10;;;;;;5012549;28;20188;-51
2022/07/28 08:32:07;;;;;;;6.45;1.23;;;18.90;87.30;;;;;;5013735;28;20755;-51
2022/07/28 08:34:34;;;;;;;2.47;1.00;;;19.00;86.80;;;;;;5012206;28;20664;-51
2022/07/28 08:37:02;;;;;;;4.95;1.10;;;19.10;86.10;;;;;;5012392;28;20220;-52
2022/07/28 08:39:28;;;;;;;7.63;1.33;;;19.10;86.10;;;;;;5013546;28;20192;-52
2022/07/28 08:41:58;;;;;;;8.65;2.63;;;19.20;85.90;;;;;;5023247;28;20278;-53
2022/07/28 08:44:29;;;;;;;9.88;4.38;;;19.20;85.10;;;;;;5010544;28;20200;-52
2022/07/28 08:46:57;;;;;;;3.95;1.20;;;19.30;85.20;;;;;;5013963;28;20267;-50
2022/07/28 08:49:23;;;;;;;4.93;1.15;;;19.40;85.00;;;;;;5040847;28;20179;-49
2022/07/28 08:51:53;;;;;;;8.38;7.57;;;19.40;84.40;;;;;;5027612;28;20183;-50
2022/07/28 08:54:21;;;;;;;11.93;8.82;;;19.50;83.80;;;;;;5016442;28;20208;-53
2022/07/28 08:56:48;;;;;;;9.80;8.80;;;19.50;83.00;;;;;;5012532;28;20212;-51
2022/07/28 08:59:14;;;;;;;10.00;9.00;;;19.50;82.60;;;;;;5013198;28;20190;-50
2022/07/28 09:01:40;;;;;;;12.23;8.80;;;19.50;82.50;;;;;;5020097;28;20257;-50
2022/07/28 09:04:07;;;;;;;13.90;9.93;;;19.50;82.20;;;;;;5021958;28;20176;-50
2022/07/28 09:06:35;;;;;;;17.00;9.50;;;19.50;81.70;;;;;;5013605;28;20221;-51
2022/07/28 09:09:01;;;;;;;11.27;9.07;;;19.50;81.40;;;;;;5012948;28;20686;-45
2022/07/28 09:11:27;;;;;;;10.38;9.20;;;19.60;81.10;;;;;;5012324;28;20180;-53
2022/07/28 09:13:53;;;;;;;10.35;9.35;;;19.60;81.00;;;;;;5012375;28;20247;-51
2022/07/28 09:16:19;;;;;;;10.38;9.27;;;19.60;80.60;;;;;;5011407;28;20212;-51
2022/07/28 09:18:44;;;;;;;12.85;9.65;;;19.70;80.50;;;;;;5023463;28;20322;-48
2022/07/28 09:21:14;;;;;;;9.43;1.00;;;19.70;80.20;;;;;;5013220;28;20227;-49
2022/07/28 09:23:44;;;;;;;2.13;0.90;;;19.80;80.00;;;;;;5013057;28;20180;-47
2022/07/28 09:26:10;;;;;;;3.00;1.05;;;19.80;79.60;;;;;;5012583;28;20185;-50
2022/07/28 09:28:54;;;;;;;2.80;1.08;;;19.90;79.10;;;;;;5023190;28;20207;-52
2022/07/28 09:31:21;;;;;;;4.00;1.00;;;20.00;79.10;;;;;;5028879;28;20221;-52
2022/07/28 09:34:01;;;;;;;7.20;1.15;;;20.10;78.90;;;;;;5047622;28;20275;-49
2022/07/28 09:36:29;;;;;;;3.17;1.10;;;20.20;78.70;;;;;;5030095;28;20222;-52
2022/07/28 09:38:55;;;;;;;1.92;0.98;;;20.30;78.70;;;;;;5032157;28;20206;-48
2022/07/28 09:41:22;;;;;;;11.98;5.72;;;20.30;78.60;;;;;;5023759;28;20188;-53
2022/07/28 09:43:50;;;;;;;5.90;2.85;;;20.40;78.60;;;;;;5028514;28;20273;-50
2022/07/28 09:46:26;;;;;;;5.63;1.40;;;20.50;79.30;;;;;;5013635;28;20207;-51
2022/07/28 09:48:57;;;;;;;3.65;1.10;;;20.60;79.50;;;;;;5023792;28;20196;-50
2022/07/28 09:51:29;;;;;;;4.63;1.30;;;20.80;78.90;;;;;;5014974;28;20192;-49
2022/07/28 09:54:18;;;;;;;3.33;1.10;;;20.90;78.90;;;;;;5016231;28;20295;-53
2022/07/28 09:56:44;;;;;;;6.25;1.30;;;20.90;78.10;;;;;;5019823;28;20415;-49
2022/07/28 09:59:11;;;;;;;4.65;1.30;;;20.90;78.10;;;;;;5035984;28;20632;-48
2022/07/28 10:01:51;;;;;;;7.25;1.40;;;20.90;77.80;;;;;;5033396;28;20184;-47
2022/07/28 10:04:34;;;;;;;3.30;0.90;;;20.90;77.40;;;;;;5021926;28;20195;-53
2022/07/28 10:07:04;;;;;;;3.35;1.20;;;21.00;77.00;;;;;;5014856;28;20216;-48
2022/07/28 10:09:31;;;;;;;3.63;1.23;;;21.00;77.10;;;;;;5015438;28;20192;-51
2022/07/28 10:12:14;;;;;;;3.05;1.17;;;21.10;76.40;;;;;;5020301;28;20203;-51
2022/07/28 10:14:39;;;;;;;6.13;1.60;;;21.20;75.60;;;;;;5030013;28;20191;-50
2022/07/28 10:17:06;;;;;;;6.03;1.10;;;21.20;75.40;;;;;;5014492;28;20224;-51
2022/07/28 10:19:31;;;;;;;8.30;1.00;;;21.20;74.20;;;;;;5015647;28;20188;-48
2022/07/28 10:21:59;;;;;;;2.30;1.00;;;21.30;73.20;;;;;;5025567;28;20192;-46
2022/07/28 10:24:28;;;;;;;2.42;1.17;;;21.30;72.90;;;;;;5028405;28;20184;-51
2022/07/28 10:26:56;;;;;;;5.00;1.00;;;21.40;71.60;;;;;;5021523;28;20188;-50
2022/07/28 10:29:23;;;;;;;11.63;1.30;;;21.50;71.20;;;;;;5015760;28;20181;-48
2022/07/28 10:32:03;;;;;;;4.55;1.33;;;21.60;70.50;;;;;;5015459;28;20193;-49
2022/07/28 10:34:47;;;;;;;12.02;10.85;;;21.70;69.90;;;;;;5015735;28;20266;-49
2022/07/28 10:37:19;;;;;;;1.98;1.05;;;21.80;69.80;;;;;;5014939;28;20185;-50
2022/07/28 10:40:15;;;;;;;4.50;1.17;;;21.90;69.40;;;;;;5015046;28;20181;-51
2022/07/28 10:42:41;;;;;;;5.07;1.17;;;22.00;69.20;;;;;;5026845;28;20262;-51
2022/07/28 10:45:10;;;;;;;4.75;0.93;;;22.10;68.90;;;;;;5015267;28;20184;-50
2022/07/28 10:47:35;;;;;;;2.65;0.90;;;22.30;67.90;;;;;;5014459;28;20185;-49
2022/07/28 10:50:02;;;;;;;7.53;2.17;;;22.40;66.70;;;;;;5015092;28;20585;-51
2022/07/28 10:52:29;;;;;;;3.92;1.08;;;22.50;65.80;;;;;;5014709;28;20280;-47
2022/07/28 10:55:22;;;;;;;4.13;1.20;;;22.60;64.30;;;;;;5013647;28;20181;-47
2022/07/28 10:58:16;;;;;;;3.67;1.30;;;22.70;63.70;;;;;;5033816;28;20197;-50
2022/07/28 11:00:54;;;;;;;4.25;1.27;;;22.80;63.40;;;;;;4987067;28;20189;-51
2022/07/28 11:03:42;;;;;;;5.32;1.10;;;23.00;63.30;;;;;;5014821;28;20661;-56
2022/07/28 11:06:28;;;;;;;3.28;1.20;;;23.10;62.60;;;;;;5019525;28;20342;-48
2022/07/28 11:09:17;;;;;;;3.47;1.30;;;23.10;62.50;;;;;;5032300;28;20180;-53
2022/07/28 11:11:49;;;;;;;4.43;2.47;;;23.10;62.40;;;;;;5028958;28;20275;-49
2022/07/28 11:14:41;;;;;;;4.25;1.20;;;23.20;62.20;;;;;;5034288;28;20171;-48
2022/07/28 11:17:06;;;;;;;3.53;1.08;;;23.20;61.70;;;;;;5026439;28;20285;-52
2022/07/28 11:19:44;;;;;;;2.58;1.00;;;23.30;61.00;;;;;;5022206;28;20560;-48
2022/07/28 11:22:17;;;;;;;1.88;1.00;;;23.40;61.00;;;;;;5017889;28;20195;-51
2022/07/28 11:25:01;;;;;;;5.72;1.13;;;23.50;60.30;;;;;;5016467;28;20187;-49
2022/07/28 11:27:42;;;;;;;7.30;1.40;;;23.60;60.40;;;;;;5020003;28;20185;-52
2022/07/28 11:30:09;;;;;;;3.50;1.38;;;23.60;60.20;;;;;;5014082;28;20662;-50
2022/07/28 11:32:50;;;;;;;3.30;1.30;;;23.60;59.90;;;;;;5022864;28;20196;-48
2022/07/28 11:35:18;;;;;;;6.72;1.45;;;23.60;59.90;;;;;;5014168;28;20299;-48
2022/07/28 11:37:59;;;;;;;4.95;1.20;;;23.60;60.00;;;;;;5018413;28;20215;-50
2022/07/28 11:40:34;;;;;;;5.47;1.20;;;23.60;59.70;;;;;;5027539;28;20291;-56
2022/07/28 11:43:22;;;;;;;3.20;1.10;;;23.70;59.50;;;;;;5025535;28;20245;-49
2022/07/28 11:45:51;;;;;;;3.65;1.10;;;23.80;59.40;;;;;;5029616;28;20210;-50
2022/07/28 11:48:21;;;;;;;6.93;1.10;;;23.80;59.00;;;;;;5024117;28;20507;-51
2022/07/28 11:51:03;;;;;;;2.22;1.10;;;23.80;58.70;;;;;;5042005;28;20695;-51
2022/07/28 11:53:49;;;;;;;2.90;1.42;;;23.90;58.50;;;;;;5016131;28;20188;-53
2022/07/28 11:56:23;;;;;;;2.08;1.17;;;23.90;58.10;;;;;;5013366;28;20208;-48
2022/07/28 11:59:00;;;;;;;11.95;1.40;;;23.90;58.30;;;;;;5013918;28;20261;-50
2022/07/28 12:01:26;;;;;;;4.68;1.45;;;24.00;58.30;;;;;;5013460;28;20301;-48
2022/07/28 12:03:53;;;;;;;7.05;1.38;;;24.00;57.90;;;;;;5013635;28;20193;-52
2022/07/28 12:06:21;;;;;;;5.85;1.45;;;24.00;58.10;;;;;;5020862;28;20228;-50
2022/07/28 12:08:58;;;;;;;3.45;1.58;;;24.10;57.80;;;;;;5013396;28;20177;-49
2022/07/28 12:11:34;;;;;;;3.80;1.20;;;24.10;57.80;;;;;;5022417;28;20189;-48
2022/07/28 12:14:05;;;;;;;2.22;1.23;;;24.10;57.60;;;;;;5013693;28;20263;-53
2022/07/28 12:16:34;;;;;;;3.03;1.20;;;24.10;58.20;;;;;;5022568;28;20212;-50
2022/07/28 12:19:01;;;;;;;3.35;1.10;;;24.10;58.00;;;;;;5013356;28;20181;-48
2022/07/28 12:21:39;;;;;;;2.72;1.20;;;24.20;57.80;;;;;;5015772;28;20683;-48
2022/07/28 12:24:07;;;;;;;4.07;1.33;;;24.20;57.70;;;;;;5029020;28;20192;-51
2022/07/28 12:26:36;;;;;;;3.22;1.63;;;24.20;57.80;;;;;;5011732;28;20192;-52
2022/07/28 12:29:03;;;;;;;3.25;1.25;;;24.30;57.70;;;;;;5012239;28;20651;-51
2022/07/28 12:31:31;;;;;;;5.00;1.30;;;24.30;57.00;;;;;;5013038;28;20721;-53
2022/07/28 12:34:05;;;;;;;1.88;1.15;;;24.20;56.90;;;;;;5012654;28;20212;-50
2022/07/28 12:36:36;;;;;;;4.00;1.20;;;24.30;56.80;;;;;;5034828;28;20203;-52
2022/07/28 12:39:05;;;;;;;3.53;1.20;;;24.40;56.80;;;;;;5030345;28;20578;-52
2022/07/28 12:41:33;;;;;;;2.88;1.20;;;24.50;56.00;;;;;;5022696;28;20188;-52
2022/07/28 12:44:00;;;;;;;3.88;1.23;;;24.60;55.40;;;;;;5032367;28;20230;-53
2022/07/28 12:46:28;;;;;;;3.67;1.13;;;24.60;55.20;;;;;;5013390;28;20180;-48
2022/07/28 12:48:55;;;;;;;36.30;26.23;;;24.70;55.10;;;;;;5016339;28;20185;-52
2022/07/28 12:51:35;;;;;;;7.78;1.45;;;24.80;54.90;;;;;;5011845;28;20188;-52
2022/07/28 12:54:03;;;;;;;5.60;1.40;;;25.00;54.00;;;;;;5012323;28;20185;-47
2022/07/28 12:56:30;;;;;;;3.40;1.05;;;25.10;54.20;;;;;;5013323;28;20274;-49
2022/07/28 12:59:09;;;;;;;5.32;1.70;;;25.30;53.90;;;;;;5012491;28;20180;-53
2022/07/28 13:01:55;;;;;;;5.03;1.35;;;25.50;53.00;;;;;;5020387;28;20184;-51